Time;durP1;ratioP1;P1;durP2;ratioP2;P2;SDS_P1;SDS_P2;PMS_P1;PMS_P2;Temp;Humidity;BMP_temperature;BMP_pressure;BME280_temperature;BME280_humidity;BME280_pressure;Samples;Min_cycle;Max_cycle;Signal;HPM_P1;HPM_P2
2021/04/16 00:00:00;;;;;;;1.95;1.80;;;;;;;5.89;60.04;101983.63;689055;28;13707;-57
2021/04/16 00:00:23;;;;;;;1.83;1.70;;;;;;;5.88;59.81;101978.38;688797;28;23422;-54
2021/04/16 00:00:46;;;;;;;1.70;1.60;;;;;;;5.88;59.92;101986.44;685278;28;75961;-54
2021/04/16 00:01:08;;;;;;;1.67;1.58;;;;;;;5.88;60.04;101975.72;687000;28;70405;-56
2021/04/16 00:01:29;;;;;;;1.67;1.58;;;;;;;5.86;59.92;101973.13;688713;28;22242;-56
2021/04/16 00:01:50;;;;;;;2.10;2.00;;;;;;;5.85;59.99;101973.25;688266;28;23419;-54
2021/04/16 00:02:11;;;;;;;2.65;2.00;;;;;;;5.86;60.20;101977.63;688533;28;23489;-55
2021/04/16 00:02:32;;;;;;;1.90;1.70;;;;;;;5.86;60.08;101980.31;688486;28;17988;-58
2021/04/16 00:02:54;;;;;;;1.70;1.60;;;;;;;5.87;60.06;101973.97;687897;28;46394;-56
2021/04/16 00:03:16;;;;;;;1.70;1.60;;;;;;;5.86;60.01;101972.25;688718;28;21540;-57
2021/04/16 00:03:37;;;;;;;2.70;1.83;;;;;;;5.88;59.96;101973.88;686711;28;70251;-55
2021/04/16 00:03:58;;;;;;;2.97;2.00;;;;;;;5.87;59.91;101974.81;688637;28;22351;-58
2021/04/16 00:04:19;;;;;;;2.00;1.75;;;;;;;5.86;60.10;101970.47;687411;28;23585;-55
2021/04/16 00:04:41;;;;;;;2.53;2.00;;;;;;;5.87;59.88;101968.63;688095;28;22421;-55
2021/04/16 00:05:02;;;;;;;2.63;1.85;;;;;;;5.86;60.01;101973.13;688243;28;22457;-55
2021/04/16 00:05:24;;;;;;;3.03;1.85;;;;;;;5.86;59.95;101970.47;687569;28;46365;-57
2021/04/16 00:05:45;;;;;;;1.73;1.63;;;;;;;5.85;60.08;101971.41;685501;28;22404;-57
2021/04/16 00:06:07;;;;;;;1.70;1.60;;;;;;;5.85;60.24;101973.25;685941;28;22463;-53
2021/04/16 00:06:28;;;;;;;1.80;1.70;;;;;;;5.83;60.20;101968.00;684993;28;44488;-58
2021/04/16 00:06:49;;;;;;;1.80;1.70;;;;;;;5.84;60.20;101974.22;685533;28;22424;-56
2021/04/16 00:07:10;;;;;;;1.90;1.77;;;;;;;5.85;60.22;101975.94;686099;28;16659;-56
2021/04/16 00:07:31;;;;;;;2.10;1.90;;;;;;;5.85;60.27;101968.75;686166;28;21506;-54
2021/04/16 00:07:53;;;;;;;1.80;1.70;;;;;;;5.85;60.28;101973.25;685330;28;22428;-54
2021/04/16 00:08:17;;;;;;;1.70;1.60;;;;;;;5.86;60.18;101972.25;684227;28;69323;-57
2021/04/16 00:08:38;;;;;;;2.60;1.67;;;;;;;5.85;60.04;101966.06;683308;28;92285;-54
2021/04/16 00:09:01;;;;;;;2.22;1.60;;;;;;;5.85;60.01;101970.56;685095;28;20821;-55
2021/04/16 00:09:22;;;;;;;1.95;1.70;;;;;;;5.85;60.09;101971.41;684791;28;47180;-54
2021/04/16 00:09:44;;;;;;;2.00;1.80;;;;;;;5.83;60.12;101970.69;685986;28;41399;-58
2021/04/16 00:10:06;;;;;;;2.65;1.80;;;;;;;5.84;60.23;101969.69;688674;28;23844;-57
2021/04/16 00:10:29;;;;;;;2.55;1.70;;;;;;;5.82;60.35;101965.44;686128;28;58871;-58
2021/04/16 00:10:53;;;;;;;2.45;1.70;;;;;;;5.83;60.14;101975.19;687564;28;44703;-56
2021/04/16 00:11:17;;;;;;;1.70;1.60;;;;;;;5.82;59.99;101968.13;686948;28;69499;-58
2021/04/16 00:11:38;;;;;;;1.60;1.50;;;;;;;5.82;60.45;101971.66;685517;28;92508;-56
2021/04/16 00:11:59;;;;;;;1.92;1.58;;;;;;;5.82;60.11;101973.47;688894;28;22273;-58
2021/04/16 00:12:20;;;;;;;1.98;1.70;;;;;;;5.81;60.21;101969.09;688683;28;21627;-55
2021/04/16 00:12:41;;;;;;;1.90;1.80;;;;;;;5.81;60.31;101969.09;688786;28;22386;-59
2021/04/16 00:13:04;;;;;;;1.80;1.70;;;;;;;5.81;59.92;101974.44;687501;28;46373;-56
2021/04/16 00:13:26;;;;;;;1.70;1.60;;;;;;;5.80;60.12;101970.91;687887;28;46333;-54
2021/04/16 00:13:47;;;;;;;1.70;1.60;;;;;;;5.80;60.16;101973.59;687733;28;45296;-55
2021/04/16 00:14:09;;;;;;;1.75;1.65;;;;;;;5.80;60.09;101970.03;688657;28;23495;-53
2021/04/16 00:14:30;;;;;;;1.60;1.50;;;;;;;5.79;60.22;101971.88;686949;28;61507;-54
2021/04/16 00:14:52;;;;;;;1.63;1.52;;;;;;;5.82;60.12;101976.16;688748;28;19697;-55
2021/04/16 00:15:16;;;;;;;1.80;1.70;;;;;;;5.81;59.99;101972.59;688073;28;22438;-57
2021/04/16 00:15:38;;;;;;;3.30;1.77;;;;;;;5.82;60.08;101973.47;686251;28;92218;-58
2021/04/16 00:16:00;;;;;;;3.40;1.90;;;;;;;5.81;60.08;101969.94;686996;28;69448;-57
2021/04/16 00:16:24;;;;;;;2.53;1.88;;;;;;;5.81;60.17;101967.25;688566;28;22523;-57
2021/04/16 00:16:45;;;;;;;1.65;1.55;;;;;;;5.81;60.10;101966.41;686194;28;93183;-57
2021/04/16 00:17:07;;;;;;;1.63;1.52;;;;;;;5.81;60.13;101971.75;687486;28;45281;-56
2021/04/16 00:17:28;;;;;;;1.70;1.60;;;;;;;5.81;60.05;101964.56;688034;28;40168;-56
2021/04/16 00:17:50;;;;;;;1.90;1.77;;;;;;;5.82;60.00;101966.28;688553;28;20724;-56
2021/04/16 00:18:15;;;;;;;1.80;1.70;;;;;;;5.81;59.99;101972.59;687010;28;32379;-55
2021/04/16 00:18:36;;;;;;;1.80;1.70;;;;;;;5.83;60.00;101969.81;685502;28;92555;-53
2021/04/16 00:18:58;;;;;;;1.80;1.70;;;;;;;5.84;59.94;101971.53;688646;28;24411;-54
2021/04/16 00:19:19;;;;;;;2.00;1.60;;;;;;;5.84;59.92;101972.38;686943;28;45271;-57
2021/04/16 00:19:40;;;;;;;1.70;1.60;;;;;;;5.83;60.00;101959.97;688372;28;21244;-53
2021/04/16 00:20:03;;;;;;;2.67;1.55;;;;;;;5.83;59.93;101970.69;688689;28;21921;-56
2021/04/16 00:20:26;;;;;;;1.70;1.48;;;;;;;5.83;59.85;101969.81;686664;28;69397;-57
2021/04/16 00:20:48;;;;;;;2.13;1.70;;;;;;;5.82;59.86;101971.66;686260;28;92187;-57
2021/04/16 00:21:09;;;;;;;1.73;1.63;;;;;;;5.81;59.87;101959.19;687472;28;46329;-58
2021/04/16 00:21:30;;;;;;;2.00;1.80;;;;;;;5.83;59.99;101962.66;688668;28;23493;-53
2021/04/16 00:21:51;;;;;;;1.70;1.60;;;;;;;5.82;59.82;101963.59;688642;28;21587;-59
2021/04/16 00:22:13;;;;;;;1.67;1.58;;;;;;;5.82;59.91;101966.28;688008;28;43766;-58
2021/04/16 00:22:35;;;;;;;1.63;1.52;;;;;;;5.82;59.92;101968.13;688650;28;19188;-56
2021/04/16 00:22:56;;;;;;;1.70;1.60;;;;;;;5.82;59.80;101962.75;687820;28;43830;-57
2021/04/16 00:23:17;;;;;;;1.60;1.50;;;;;;;5.82;59.91;101963.59;688617;28;23428;-55
2021/04/16 00:23:39;;;;;;;1.70;1.60;;;;;;;5.83;59.81;101961.78;688678;28;22607;-58
2021/04/16 00:24:01;;;;;;;2.00;1.70;;;;;;;5.82;59.93;101966.28;687846;28;47587;-55
2021/04/16 00:24:22;;;;;;;1.70;1.60;;;;;;;5.83;60.02;101967.13;688112;28;45358;-57
2021/04/16 00:24:43;;;;;;;1.77;1.67;;;;;;;5.82;59.75;101963.59;688953;28;18807;-56
2021/04/16 00:25:07;;;;;;;1.70;1.60;;;;;;;5.83;59.85;101967.13;688361;28;20466;-54
2021/04/16 00:25:30;;;;;;;1.70;1.60;;;;;;;5.82;59.84;101965.44;685888;28;92138;-56
2021/04/16 00:26:00;;;;;;;1.60;1.50;;;;;;;5.82;59.85;101963.59;687423;28;59875;-56
2021/04/16 00:26:21;;;;;;;1.63;1.52;;;;;;;5.82;59.88;101960.09;688709;28;13449;-56
2021/04/16 00:26:43;;;;;;;2.00;1.80;;;;;;;5.82;59.85;101957.41;688535;28;24444;-53
2021/04/16 00:27:06;;;;;;;1.75;1.60;;;;;;;5.82;59.71;101952.03;688855;28;15843;-54
2021/04/16 00:27:27;;;;;;;1.70;1.60;;;;;;;5.81;59.71;101953.84;687913;28;45359;-58
2021/04/16 00:27:48;;;;;;;1.80;1.70;;;;;;;5.81;59.84;101959.19;688659;28;20805;-57
2021/04/16 00:28:11;;;;;;;1.50;1.50;;;;;;;5.83;59.93;101953.72;688698;28;22384;-55
2021/04/16 00:28:33;;;;;;;1.60;1.50;;;;;;;5.82;59.83;101960.09;686479;28;46376;-57
2021/04/16 00:28:54;;;;;;;1.77;1.67;;;;;;;5.82;59.80;101955.56;686589;28;45271;-54
2021/04/16 00:29:15;;;;;;;1.70;1.60;;;;;;;5.83;59.81;101959.97;688170;28;1085;-58
2021/04/16 00:29:40;;;;;;;1.80;1.70;;;;;;;5.83;59.53;101959.09;687099;28;1246;-51
2021/04/16 00:30:01;;;;;;;1.55;1.45;;;;;;;5.84;59.88;101963.50;684358;28;113321;-55
2021/04/16 00:30:25;;;;;;;1.70;1.60;;;;;;;5.82;59.94;101960.91;688812;28;22511;-50
2021/04/16 00:30:49;;;;;;;1.77;1.67;;;;;;;5.83;59.77;101962.66;687139;28;85378;-50
2021/04/16 00:31:13;;;;;;;1.85;1.75;;;;;;;5.84;59.82;101960.81;686924;28;83008;-54
2021/04/16 00:31:35;;;;;;;1.98;1.50;;;;;;;5.83;59.89;101956.41;686244;28;93672;-50
2021/04/16 00:31:56;;;;;;;2.08;1.60;;;;;;;5.82;59.83;101957.41;688240;28;41026;-55
2021/04/16 00:32:17;;;;;;;2.42;1.65;;;;;;;5.81;59.87;101953.00;688524;28;14786;-52
2021/04/16 00:32:39;;;;;;;2.95;1.95;;;;;;;5.81;59.82;101953.00;687307;28;23721;-52
2021/04/16 00:33:00;;;;;;;2.03;1.67;;;;;;;5.83;59.98;101953.72;686350;28;43691;-50
2021/04/16 00:33:22;;;;;;;1.70;1.52;;;;;;;5.82;59.80;101950.19;688394;28;20597;-51
2021/04/16 00:33:44;;;;;;;1.63;1.60;;;;;;;5.82;59.98;101958.25;689185;28;13357;-53
2021/04/16 00:34:05;;;;;;;2.45;1.58;;;;;;;5.83;59.82;101959.09;687936;28;26038;-53
2021/04/16 00:34:26;;;;;;;2.03;1.67;;;;;;;5.81;59.88;101951.16;689242;28;19745;-50
2021/04/16 00:34:47;;;;;;;2.40;1.80;;;;;;;5.81;59.87;101948.47;688224;28;23425;-56
2021/04/16 00:35:10;;;;;;;1.70;1.60;;;;;;;5.80;59.90;101951.28;688861;28;22559;-52
2021/04/16 00:35:32;;;;;;;1.92;1.83;;;;;;;5.80;59.58;101946.78;686891;28;69630;-55
2021/04/16 00:35:53;;;;;;;1.73;1.63;;;;;;;5.78;60.00;101949.59;687614;28;44363;-58
2021/04/16 00:36:15;;;;;;;1.90;1.60;;;;;;;5.80;59.92;101953.97;687393;28;22637;-51
2021/04/16 00:36:47;;;;;;;1.70;1.60;;;;;;;5.80;59.82;101948.59;684735;28;98567;-54
2021/04/16 00:37:08;;;;;;;1.90;1.73;;;;;;;5.79;59.77;101947.75;686519;28;47199;-52
2021/04/16 00:37:29;;;;;;;1.90;1.70;;;;;;;5.80;59.94;101951.28;687092;28;31725;-56
2021/04/16 00:37:51;;;;;;;3.50;1.80;;;;;;;5.81;59.93;101944.94;687521;28;19310;-55
2021/04/16 00:38:13;;;;;;;3.08;1.73;;;;;;;5.81;59.96;101945.78;687739;28;20597;-53
2021/04/16 00:38:34;;;;;;;3.25;1.70;;;;;;;5.81;59.86;101948.47;688346;28;44426;-53
2021/04/16 00:38:55;;;;;;;1.65;1.55;;;;;;;5.82;59.78;101946.69;688467;28;22413;-55
2021/04/16 00:39:19;;;;;;;1.58;1.48;;;;;;;5.82;59.74;101949.34;688637;28;22271;-53
2021/04/16 00:39:41;;;;;;;1.80;1.70;;;;;;;5.82;59.74;101952.03;684743;28;93135;-51
2021/04/16 00:40:04;;;;;;;1.70;1.60;;;;;;;5.81;59.81;101943.13;686580;28;45287;-54
2021/04/16 00:40:28;;;;;;;1.60;1.50;;;;;;;5.83;59.43;101943.00;687016;28;69441;-53
2021/04/16 00:40:53;;;;;;;1.90;1.70;;;;;;;5.83;59.50;101943.00;686340;28;80123;-52
2021/04/16 00:41:17;;;;;;;1.90;1.80;;;;;;;5.82;59.66;101946.69;686621;28;61113;-51
2021/04/16 00:41:39;;;;;;;2.63;1.80;;;;;;;5.81;59.62;101937.75;688867;28;15021;-52
2021/04/16 00:42:00;;;;;;;2.33;1.80;;;;;;;5.82;59.80;101944.84;688734;28;13259;-52
2021/04/16 00:42:22;;;;;;;2.17;1.70;;;;;;;5.81;59.71;101943.13;686263;28;1397;-55
2021/04/16 00:42:51;;;;;;;2.70;1.77;;;;;;;5.82;59.71;101939.47;685596;28;21849;-55
2021/04/16 00:43:16;;;;;;;1.95;1.70;;;;;;;5.83;59.68;101945.69;681880;28;139255;-50
2021/04/16 00:43:38;;;;;;;1.70;1.60;;;;;;;5.85;59.64;101946.44;685077;28;38968;-55
2021/04/16 00:43:59;;;;;;;1.70;1.60;;;;;;;5.84;59.56;101942.88;685221;28;46421;-53
2021/04/16 00:44:20;;;;;;;1.70;1.60;;;;;;;5.85;59.60;101949.13;688503;28;5132;-52
2021/04/16 00:44:41;;;;;;;1.58;1.48;;;;;;;5.85;59.42;101944.59;686531;28;1632;-55
2021/04/16 00:45:04;;;;;;;1.50;1.40;;;;;;;5.85;59.28;101949.13;685631;28;22386;-50
2021/04/16 00:45:27;;;;;;;1.75;1.60;;;;;;;5.85;59.13;101946.44;683979;28;68479;-50
2021/04/16 00:45:48;;;;;;;1.73;1.63;;;;;;;5.84;59.43;101944.72;681346;28;69440;-53
2021/04/16 00:46:22;;;;;;;2.20;1.75;;;;;;;5.85;59.40;101944.59;683015;28;21552;-56
2021/04/16 00:46:46;;;;;;;1.50;1.40;;;;;;;5.86;59.39;101949.00;681117;28;137684;-50
2021/04/16 00:47:12;;;;;;;1.80;1.60;;;;;;;5.87;59.48;101948.00;683246;28;92582;-53
2021/04/16 00:47:33;;;;;;;1.70;1.60;;;;;;;5.89;58.90;101946.09;682146;28;137490;-57
2021/04/16 00:47:57;;;;;;;2.28;1.80;;;;;;;5.90;59.32;101950.47;686040;28;46479;-52
2021/04/16 00:48:25;;;;;;;2.15;1.92;;;;;;;5.88;59.23;101947.06;680901;28;93087;-52
2021/04/16 00:48:48;;;;;;;1.85;1.70;;;;;;;5.87;59.18;101945.34;679919;28;108585;-55
2021/04/16 00:49:14;;;;;;;1.60;1.50;;;;;;;5.88;59.23;101940.84;681497;28;67500;-51
2021/04/16 00:49:38;;;;;;;1.60;1.50;;;;;;;5.87;59.23;101945.34;678267;28;138275;-56
2021/04/16 00:50:06;;;;;;;1.70;1.60;;;;;;;5.86;59.30;101943.66;683184;28;92358;-53
2021/04/16 00:50:30;;;;;;;1.48;1.38;;;;;;;5.84;59.28;101942.88;684134;28;137594;-55
2021/04/16 00:50:54;;;;;;;1.80;1.70;;;;;;;5.84;59.33;101944.72;686088;28;93240;-53
2021/04/16 00:51:18;;;;;;;2.00;1.80;;;;;;;5.84;59.40;101944.72;685877;28;93116;-52
2021/04/16 00:51:43;;;;;;;1.60;1.50;;;;;;;5.82;59.18;101942.16;686528;28;91104;-52
2021/04/16 00:52:06;;;;;;;1.45;1.35;;;;;;;5.83;59.12;101946.56;685410;28;115195;-55
2021/04/16 00:52:29;;;;;;;1.83;1.50;;;;;;;5.84;59.39;101942.03;687210;28;69917;-54
2021/04/16 00:52:50;;;;;;;1.55;1.30;;;;;;;5.85;59.27;101949.13;686952;28;67540;-52
2021/04/16 00:53:12;;;;;;;2.33;1.70;;;;;;;5.85;59.32;101947.28;688344;28;22276;-54
2021/04/16 00:53:34;;;;;;;2.03;1.85;;;;;;;5.84;59.39;101944.72;688108;28;43792;-54
2021/04/16 00:53:57;;;;;;;1.90;1.80;;;;;;;5.86;59.25;101946.31;688742;28;1155;-56
2021/04/16 00:54:22;;;;;;;1.85;1.70;;;;;;;5.86;59.08;101942.78;689271;28;942;-53
2021/04/16 00:54:43;;;;;;;1.70;1.60;;;;;;;5.86;59.25;101949.00;685614;28;103954;-50
2021/04/16 00:55:05;;;;;;;1.70;1.60;;;;;;;5.86;59.24;101945.44;689103;28;12719;-50
2021/04/16 00:55:27;;;;;;;1.63;1.48;;;;;;;5.86;59.22;101946.31;688172;28;45527;-50
2021/04/16 00:55:48;;;;;;;1.50;1.40;;;;;;;5.87;59.14;101948.00;687627;28;35227;-56
2021/04/16 00:56:10;;;;;;;1.60;1.50;;;;;;;5.86;59.15;101945.44;689152;28;943;-53
2021/04/16 00:56:32;;;;;;;1.58;1.50;;;;;;;5.86;58.99;101942.78;688246;28;41371;-54
2021/04/16 00:56:54;;;;;;;1.85;1.52;;;;;;;5.85;59.01;101943.75;689076;28;927;-51
2021/04/16 00:57:15;;;;;;;1.80;1.63;;;;;;;5.86;59.18;101945.44;688730;28;36088;-52
2021/04/16 00:57:37;;;;;;;1.65;1.50;;;;;;;5.84;59.22;101944.72;688532;28;22484;-57
2021/04/16 00:57:58;;;;;;;1.63;1.52;;;;;;;5.85;59.20;101949.13;687689;28;44521;-54
2021/04/16 00:58:22;;;;;;;1.90;1.80;;;;;;;5.84;59.22;101947.41;688631;28;22719;-56
2021/04/16 00:58:43;;;;;;;1.45;1.40;;;;;;;5.84;59.31;101944.72;686654;28;93376;-52
2021/04/16 00:59:05;;;;;;;1.58;1.48;;;;;;;5.83;59.40;101948.38;688039;28;23517;-50
2021/04/16 00:59:28;;;;;;;1.60;1.48;;;;;;;5.83;59.34;101943.00;688903;28;931;-53
2021/04/16 00:59:52;;;;;;;1.60;1.50;;;;;;;5.83;59.32;101948.38;686907;28;69004;-52
2021/04/16 01:00:14;;;;;;;1.52;1.50;;;;;;;5.81;59.28;101944.94;686037;28;92337;-51
2021/04/16 01:00:37;;;;;;;1.65;1.55;;;;;;;5.83;59.37;101943.00;687497;28;46406;-55
2021/04/16 01:01:01;;;;;;;1.80;1.42;;;;;;;5.83;59.34;101946.56;686796;28;69409;-52
2021/04/16 01:01:22;;;;;;;1.47;1.37;;;;;;;5.83;59.17;101940.31;686204;28;92367;-52
2021/04/16 01:01:44;;;;;;;1.42;1.42;;;;;;;5.84;59.38;101945.56;688013;28;45164;-54
2021/04/16 01:02:06;;;;;;;1.70;1.60;;;;;;;5.84;59.23;101950.94;687675;28;47213;-52
2021/04/16 01:02:27;;;;;;;1.90;1.80;;;;;;;5.85;59.20;101946.44;686931;28;41048;-53
2021/04/16 01:02:48;;;;;;;1.80;1.70;;;;;;;5.85;59.22;101951.81;688881;28;22379;-56
2021/04/16 01:03:10;;;;;;;1.70;1.60;;;;;;;5.86;59.18;101948.13;688963;28;7414;-52
2021/04/16 01:03:32;;;;;;;1.90;1.65;;;;;;;5.85;59.20;101941.09;687666;28;44267;-55
2021/04/16 01:03:53;;;;;;;1.60;1.50;;;;;;;5.86;59.05;101937.41;686832;28;46580;-54
2021/04/16 01:04:14;;;;;;;1.60;1.50;;;;;;;5.85;59.06;101949.97;688570;28;21254;-52
2021/04/16 01:04:35;;;;;;;1.92;1.58;;;;;;;5.85;59.03;101946.44;689003;28;23297;-51
2021/04/16 01:04:57;;;;;;;2.05;1.75;;;;;;;5.85;58.88;101946.44;688875;28;21390;-54
2021/04/16 01:05:19;;;;;;;1.70;1.60;;;;;;;5.84;58.98;101945.56;687668;28;44243;-54
2021/04/16 01:05:40;;;;;;;1.60;1.50;;;;;;;5.84;59.17;101942.88;689272;28;47740;-55
2021/04/16 01:06:05;;;;;;;1.75;1.40;;;;;;;5.84;59.08;101944.72;689380;28;1273;-50
2021/04/16 01:06:26;;;;;;;2.05;1.48;;;;;;;5.83;58.97;101943.88;686109;28;92311;-52
2021/04/16 01:06:47;;;;;;;1.92;1.50;;;;;;;5.82;58.95;101946.69;687424;28;43181;-53
2021/04/16 01:07:09;;;;;;;1.58;1.48;;;;;;;5.82;58.99;101944.00;688319;28;22396;-56
2021/04/16 01:07:30;;;;;;;1.60;1.50;;;;;;;5.82;59.35;101934.13;687781;28;45250;-53
2021/04/16 01:07:52;;;;;;;1.98;1.58;;;;;;;5.82;59.15;101946.69;688564;28;23462;-54
2021/04/16 01:08:14;;;;;;;1.60;1.50;;;;;;;5.84;59.22;101939.34;688132;28;44952;-50
2021/04/16 01:08:36;;;;;;;1.60;1.50;;;;;;;5.82;59.16;101939.47;687761;28;46475;-55
2021/04/16 01:08:57;;;;;;;1.95;1.40;;;;;;;5.83;59.16;101941.19;688137;28;22472;-51
2021/04/16 01:09:19;;;;;;;1.98;1.30;;;;;;;5.84;58.95;101936.69;687597;28;24450;-53
2021/04/16 01:09:41;;;;;;;1.85;1.70;;;;;;;5.84;58.98;101940.22;683375;28;54763;-54
2021/04/16 01:10:04;;;;;;;1.77;1.60;;;;;;;5.84;59.13;101942.03;684091;28;47685;-50
2021/04/16 01:10:25;;;;;;;1.60;1.50;;;;;;;5.81;59.02;101940.44;685096;28;41509;-52
2021/04/16 01:10:49;;;;;;;1.73;1.63;;;;;;;5.82;59.05;101942.16;681985;28;31642;-51
2021/04/16 01:11:10;;;;;;;1.58;1.48;;;;;;;5.83;59.05;101937.63;680579;28;92414;-54
2021/04/16 01:11:31;;;;;;;1.80;1.70;;;;;;;5.82;59.11;101934.13;683326;28;44372;-51
2021/04/16 01:11:52;;;;;;;1.60;1.50;;;;;;;5.83;58.99;101941.19;686483;28;13190;-54
2021/04/16 01:12:14;;;;;;;1.70;1.50;;;;;;;5.83;59.00;101935.84;685177;28;9169;-54
2021/04/16 01:12:36;;;;;;;1.80;1.40;;;;;;;5.84;59.07;101939.34;685313;28;46340;-52
2021/04/16 01:12:57;;;;;;;1.70;1.45;;;;;;;5.83;59.03;101932.28;687422;28;46425;-54
2021/04/16 01:13:21;;;;;;;2.03;1.50;;;;;;;5.84;59.05;101940.22;687215;28;22426;-57
2021/04/16 01:13:42;;;;;;;1.58;1.50;;;;;;;5.82;59.12;101936.78;685598;28;69484;-54
2021/04/16 01:14:04;;;;;;;1.60;1.50;;;;;;;5.82;59.01;101938.63;688048;28;45357;-53
2021/04/16 01:14:25;;;;;;;1.60;1.50;;;;;;;5.82;59.11;101942.16;687075;28;45262;-51
2021/04/16 01:14:50;;;;;;;1.90;1.50;;;;;;;5.83;59.23;101940.31;685730;28;23304;-50
2021/04/16 01:15:16;;;;;;;2.17;1.50;;;;;;;5.84;59.03;101942.03;682761;28;112422;-53
2021/04/16 01:15:39;;;;;;;3.30;1.70;;;;;;;5.84;59.05;101942.88;678553;28;141675;-51
2021/04/16 01:16:02;;;;;;;1.75;1.55;;;;;;;5.84;59.09;101940.22;681653;28;69661;-56
2021/04/16 01:16:29;;;;;;;1.73;1.58;;;;;;;5.83;59.04;101933.16;681465;28;67503;-55
2021/04/16 01:16:51;;;;;;;1.70;1.60;;;;;;;5.84;59.16;101939.34;681278;28;138846;-51
2021/04/16 01:17:13;;;;;;;1.50;1.40;;;;;;;5.85;59.08;101941.09;684698;28;46319;-50
2021/04/16 01:17:35;;;;;;;1.60;1.45;;;;;;;5.85;59.18;101936.56;686984;28;46384;-57
2021/04/16 01:17:58;;;;;;;1.52;1.42;;;;;;;5.86;58.99;101937.41;688126;28;46368;-51
2021/04/16 01:18:23;;;;;;;1.60;1.50;;;;;;;5.85;58.88;101936.56;686571;28;69286;-55
2021/04/16 01:18:48;;;;;;;1.60;1.50;;;;;;;5.84;58.94;101934.84;685514;28;115350;-53
2021/04/16 01:19:16;;;;;;;2.08;1.50;;;;;;;5.84;58.95;101934.84;686509;28;92281;-53
2021/04/16 01:19:40;;;;;;;1.80;1.70;;;;;;;5.85;58.83;101941.09;682986;28;159741;-55
2021/04/16 01:20:10;;;;;;;1.60;1.50;;;;;;;5.83;58.75;101935.84;685569;28;115295;-52
2021/04/16 01:20:34;;;;;;;1.63;1.50;;;;;;;5.84;58.75;101925.94;685005;28;127736;-56
2021/04/16 01:20:56;;;;;;;2.22;1.70;;;;;;;5.84;58.75;101931.31;685772;28;104467;-55
2021/04/16 01:21:21;;;;;;;1.60;1.50;;;;;;;5.84;58.89;101934.00;687756;28;46380;-51
2021/04/16 01:21:46;;;;;;;1.50;1.40;;;;;;;5.84;58.74;101928.63;685414;28;115109;-51
2021/04/16 01:22:10;;;;;;;1.80;1.70;;;;;;;5.83;58.83;101933.16;685675;28;115846;-54
2021/04/16 01:22:34;;;;;;;2.42;1.70;;;;;;;5.83;58.80;101935.84;686026;28;92244;-58
2021/04/16 01:22:59;;;;;;;2.25;1.50;;;;;;;5.85;58.76;101933.03;686013;28;91909;-53
2021/04/16 01:23:27;;;;;;;1.88;1.50;;;;;;;5.84;58.91;101929.47;685052;28;116182;-51
2021/04/16 01:23:51;;;;;;;1.58;1.48;;;;;;;5.85;58.90;101933.03;683861;28;159206;-50
2021/04/16 01:24:24;;;;;;;1.63;1.52;;;;;;;5.84;58.62;101937.53;685795;28;115176;-53
2021/04/16 01:24:46;;;;;;;2.45;1.52;;;;;;;5.85;58.71;101943.75;684475;28;137735;-51
2021/04/16 01:25:10;;;;;;;1.70;1.60;;;;;;;5.86;58.77;101937.41;689948;28;1488;-52
2021/04/16 01:25:32;;;;;;;2.13;1.50;;;;;;;5.87;58.67;101939.13;687319;28;14922;-54
2021/04/16 01:26:02;;;;;;;1.58;1.42;;;;;;;5.85;58.43;101938.41;687209;28;61507;-55
2021/04/16 01:26:27;;;;;;;1.55;1.45;;;;;;;5.84;58.38;101931.31;686612;28;69190;-51
2021/04/16 01:26:48;;;;;;;1.50;1.40;;;;;;;5.82;58.56;101933.28;686324;28;92317;-50
2021/04/16 01:27:11;;;;;;;1.35;1.25;;;;;;;5.82;58.61;101934.13;687535;28;36528;-53
2021/04/16 01:27:33;;;;;;;1.67;1.58;;;;;;;5.83;58.70;101937.63;687167;28;70032;-52
2021/04/16 01:27:54;;;;;;;3.03;1.73;;;;;;;5.83;58.63;101937.63;688112;28;43678;-51
2021/04/16 01:28:16;;;;;;;3.92;1.75;;;;;;;5.83;58.70;101940.31;688144;28;13637;-53
2021/04/16 01:28:37;;;;;;;2.70;1.55;;;;;;;5.82;58.83;101938.63;687975;28;45419;-54
2021/04/16 01:28:58;;;;;;;1.50;1.40;;;;;;;5.81;58.83;101935.06;688775;28;22394;-52
2021/04/16 01:29:21;;;;;;;1.58;1.45;;;;;;;5.83;58.75;101933.16;688773;28;8238;-56
2021/04/16 01:29:44;;;;;;;1.58;1.40;;;;;;;5.84;58.57;101939.34;687595;28;44371;-51
2021/04/16 01:30:08;;;;;;;2.55;1.52;;;;;;;5.83;58.61;101943.00;686024;28;90340;-55
2021/04/16 01:30:30;;;;;;;1.70;1.60;;;;;;;5.83;58.61;101938.50;686506;28;88446;-54
2021/04/16 01:30:55;;;;;;;1.50;1.40;;;;;;;5.81;58.52;101935.06;688093;28;42355;-51
2021/04/16 01:31:20;;;;;;;1.50;1.40;;;;;;;5.83;58.53;101938.50;687233;28;61707;-53
2021/04/16 01:31:47;;;;;;;1.50;1.40;;;;;;;5.82;58.45;101944.84;687261;28;60573;-53
2021/04/16 01:32:10;;;;;;;2.20;1.70;;;;;;;5.82;58.56;101939.47;684631;28;138012;-52
2021/04/16 01:32:32;;;;;;;1.50;1.40;;;;;;;5.81;58.54;101934.22;687696;28;41478;-56
2021/04/16 01:32:54;;;;;;;1.60;1.50;;;;;;;5.81;58.51;101932.41;687691;28;46624;-51
2021/04/16 01:33:15;;;;;;;1.90;1.70;;;;;;;5.82;58.68;101936.78;688795;28;23436;-52
2021/04/16 01:33:37;;;;;;;1.60;1.50;;;;;;;5.81;58.73;101942.28;688441;28;20379;-52
2021/04/16 01:33:59;;;;;;;2.17;1.58;;;;;;;5.82;58.69;101941.31;686984;28;67635;-51
2021/04/16 01:34:22;;;;;;;1.83;1.60;;;;;;;5.81;58.49;101943.13;688887;28;16479;-52
2021/04/16 01:34:43;;;;;;;1.45;1.30;;;;;;;5.81;58.51;101937.75;686451;28;76095;-53
2021/04/16 01:35:08;;;;;;;2.10;1.50;;;;;;;5.81;58.43;101939.59;689396;28;6224;-53
2021/04/16 01:35:31;;;;;;;1.60;1.50;;;;;;;5.82;58.25;101938.63;684037;28;106023;-54
2021/04/16 01:35:52;;;;;;;1.70;1.60;;;;;;;5.82;58.38;101942.16;685800;28;69468;-50
2021/04/16 01:36:16;;;;;;;2.60;1.77;;;;;;;5.85;58.34;101944.59;688291;28;23426;-54
2021/04/16 01:36:37;;;;;;;1.65;1.40;;;;;;;5.84;58.42;101936.69;685522;28;93106;-52
2021/04/16 01:36:59;;;;;;;1.40;1.30;;;;;;;5.85;58.44;101943.75;688608;28;9209;-54
2021/04/16 01:37:20;;;;;;;1.40;1.30;;;;;;;5.85;58.24;101941.94;688540;28;11885;-53
2021/04/16 01:37:41;;;;;;;1.50;1.40;;;;;;;5.85;58.30;101944.59;687834;28;42067;-51
2021/04/16 01:38:04;;;;;;;1.50;1.40;;;;;;;5.85;58.39;101933.88;688400;28;22285;-52
2021/04/16 01:38:25;;;;;;;1.67;1.55;;;;;;;5.85;58.19;101941.09;685859;28;44382;-54
2021/04/16 01:38:46;;;;;;;2.80;1.52;;;;;;;5.85;58.23;101941.94;687563;28;45350;-54
2021/04/16 01:39:07;;;;;;;1.55;1.40;;;;;;;5.83;58.36;101938.50;689408;28;23428;-52
2021/04/16 01:39:31;;;;;;;3.10;1.60;;;;;;;5.83;58.22;101933.16;688138;28;22409;-53
2021/04/16 01:39:53;;;;;;;1.35;1.35;;;;;;;5.84;58.24;101934.00;685695;28;92280;-53
2021/04/16 01:40:15;;;;;;;1.40;1.30;;;;;;;5.84;58.36;101940.22;688934;28;22438;-50
2021/04/16 01:40:36;;;;;;;1.77;1.48;;;;;;;5.83;58.29;101940.31;687393;28;47599;-55
2021/04/16 01:40:58;;;;;;;1.90;1.40;;;;;;;5.83;58.31;101938.50;689371;28;1086;-51
2021/04/16 01:41:19;;;;;;;1.80;1.70;;;;;;;5.84;58.34;101936.69;689139;28;22664;-53
2021/04/16 01:41:40;;;;;;;1.77;1.67;;;;;;;5.84;58.24;101934.84;688080;28;31502;-52
2021/04/16 01:42:01;;;;;;;1.70;1.60;;;;;;;5.83;58.15;101938.50;688562;28;22406;-52
2021/04/16 01:42:23;;;;;;;2.25;1.50;;;;;;;5.84;58.33;101944.72;688387;28;23530;-54
2021/04/16 01:42:45;;;;;;;1.80;1.48;;;;;;;5.83;58.25;101932.28;688933;28;1106;-53
2021/04/16 01:43:21;;;;;;;1.98;1.40;;;;;;;5.83;58.17;101943.88;688235;28;21864;-53
2021/04/16 01:43:45;;;;;;;1.48;1.38;;;;;;;5.82;58.22;101933.28;684526;28;135810;-53
2021/04/16 01:44:10;;;;;;;1.63;1.42;;;;;;;5.84;58.25;101942.03;685467;28;73469;-55
2021/04/16 01:44:31;;;;;;;2.03;1.50;;;;;;;5.83;58.32;101934.97;686471;28;89877;-51
2021/04/16 01:44:52;;;;;;;1.90;1.60;;;;;;;5.85;57.95;101936.56;688662;28;11540;-53
2021/04/16 01:45:19;;;;;;;1.83;1.60;;;;;;;5.86;58.33;101935.59;689127;28;1026;-52
2021/04/16 01:45:40;;;;;;;1.40;1.30;;;;;;;5.86;58.15;101942.78;683946;28;136344;-54
2021/04/16 01:46:03;;;;;;;1.50;1.40;;;;;;;5.86;58.30;101943.66;688814;28;22368;-51
2021/04/16 01:46:25;;;;;;;1.30;1.20;;;;;;;5.87;58.23;101941.81;686914;28;67380;-52
2021/04/16 01:46:57;;;;;;;1.87;1.67;;;;;;;5.85;58.09;101936.56;688920;28;14942;-55
2021/04/16 01:47:18;;;;;;;1.40;1.40;;;;;;;5.84;58.12;101942.03;684638;28;137053;-54
2021/04/16 01:47:40;;;;;;;1.80;1.40;;;;;;;5.84;58.13;101931.31;689005;28;855;-55